Weather at Zavodskoe Airfield

Public forecast

Using degrees Celsius for public forecast. Weather courtesy of forecast.io.

Closest aviation weather report (METAR) to Zavodskoe Airfield

Closest report is Anapa Vityazevo Airport, 139.7 nm (258.7 km) E.

2024/05/30 00:00 (retrieved 24 minutes ago)

URKA 300000Z 13003MPS 9999 4100SW BR SCT/// 10/10 Q1013 R03/010070 TEMPO 0500 FG BKN003 RMK QFE756/1008

Closest aviation forecast (TAF) to Zavodskoe Airfield

Forecast is more than 6 hours old.

Closest forecast is Kukës International Airport, 618.3 nm (1,145.1 km) WSW.

2024/05/29 18:00 Ammendment (retrieved 6 hours ago)

TAF AMD LAKU 291900Z 2918/3018 CNL